createdAt,value
2018-07-23T00:00:37.640Z,17.79
2018-07-23T00:03:07.307Z,17.74
2018-07-23T00:05:36.780Z,17.66
2018-07-23T00:08:06.220Z,17.65
2018-07-23T00:10:35.749Z,17.63
2018-07-23T00:13:05.487Z,17.62
2018-07-23T00:15:35.318Z,17.68
2018-07-23T00:18:04.846Z,17.69
2018-07-23T00:20:34.285Z,17.69
2018-07-23T00:23:03.801Z,17.69
2018-07-23T00:25:33.330Z,17.65
2018-07-23T00:28:02.827Z,17.59
2018-07-23T00:30:32.288Z,17.57
2018-07-23T00:33:01.769Z,17.55
2018-07-23T00:35:31.191Z,17.52
2018-07-23T00:38:00.757Z,17.53
2018-07-23T00:40:30.212Z,17.51
2018-07-23T00:42:59.628Z,17.50
2018-07-23T00:45:29.048Z,17.51
2018-07-23T00:47:58.587Z,17.52
2018-07-23T00:50:28.600Z,17.49
2018-07-23T00:52:58.077Z,17.39
2018-07-23T00:55:27.623Z,17.39
2018-07-23T00:57:57.037Z,17.35
2018-07-23T01:00:26.455Z,17.31
2018-07-23T01:02:55.926Z,17.24
2018-07-23T01:05:26.580Z,17.22
2018-07-23T01:07:56.023Z,17.18
2018-07-23T01:10:26.178Z,17.16
2018-07-23T01:12:55.619Z,17.13
2018-07-23T01:15:25.112Z,17.13
2018-07-23T01:17:54.577Z,17.09
2018-07-23T01:20:24.051Z,17.10
2018-07-23T01:22:54.127Z,17.09
2018-07-23T01:25:23.635Z,17.07
2018-07-23T01:27:53.129Z,17.04
2018-07-23T01:30:22.618Z,17.01
2018-07-23T01:32:52.984Z,17.03
2018-07-23T01:35:22.468Z,17.01
2018-07-23T01:37:51.968Z,17.03
2018-07-23T01:40:21.395Z,17.01
2018-07-23T01:42:50.807Z,16.96
2018-07-23T01:45:20.296Z,16.95
2018-07-23T01:47:49.717Z,16.93
2018-07-23T01:50:19.168Z,16.86
2018-07-23T01:52:48.594Z,16.82
2018-07-23T01:55:18.072Z,16.80
2018-07-23T01:57:47.572Z,16.84
2018-07-23T02:00:17.022Z,16.85
2018-07-23T02:02:46.477Z,16.86
2018-07-23T02:05:15.981Z,16.83
2018-07-23T02:07:45.414Z,16.82
2018-07-23T02:10:14.955Z,16.77
2018-07-23T02:12:44.376Z,16.74
2018-07-23T02:15:13.838Z,16.75
2018-07-23T02:17:43.242Z,16.78
2018-07-23T02:20:12.713Z,16.74
2018-07-23T02:22:42.176Z,16.70
2018-07-23T02:25:11.613Z,16.69
2018-07-23T02:27:41.067Z,16.67
2018-07-23T02:30:10.471Z,16.58
2018-07-23T02:32:40.330Z,16.53
2018-07-23T02:35:09.883Z,16.50
2018-07-23T02:37:39.403Z,16.46
2018-07-23T02:40:08.916Z,16.50
2018-07-23T02:42:38.411Z,16.53
2018-07-23T02:45:07.932Z,16.52
2018-07-23T02:47:38.182Z,16.49
2018-07-23T02:50:07.792Z,16.41
2018-07-23T02:52:37.912Z,16.46
2018-07-23T02:55:07.351Z,16.47
2018-07-23T02:57:36.788Z,16.45
2018-07-23T03:00:07.111Z,16.43
2018-07-23T03:02:36.593Z,16.44
2018-07-23T03:05:06.019Z,16.44
2018-07-23T03:07:36.306Z,16.39
2018-07-23T03:10:06.520Z,16.30
2018-07-23T03:12:36.100Z,16.32
2018-07-23T03:15:07.148Z,16.36
2018-07-23T03:17:36.615Z,16.40
2018-07-23T03:20:05.792Z,16.42
2018-07-23T03:22:35.286Z,16.41
2018-07-23T03:25:04.874Z,16.40
2018-07-23T03:27:34.401Z,16.41
2018-07-23T03:30:04.508Z,16.40
2018-07-23T03:32:33.921Z,16.35
2018-07-23T03:35:03.369Z,16.33
2018-07-23T03:37:32.788Z,16.35
2018-07-23T03:40:02.234Z,16.33
2018-07-23T03:42:31.789Z,16.30
2018-07-23T03:45:01.224Z,16.32
2018-07-23T03:47:30.624Z,16.32
2018-07-23T03:50:00.061Z,16.35
2018-07-23T03:52:29.601Z,16.33
2018-07-23T03:54:59.069Z,16.31
2018-07-23T03:57:28.581Z,16.32
2018-07-23T03:59:58.061Z,16.31
2018-07-23T04:02:27.513Z,16.28
2018-07-23T04:04:56.952Z,16.28
2018-07-23T04:07:26.593Z,16.29
2018-07-23T04:09:57.491Z,16.27
2018-07-23T04:12:26.883Z,16.27
2018-07-23T04:14:56.379Z,16.26
2018-07-23T04:17:25.532Z,16.29
2018-07-23T04:19:55.014Z,16.28
2018-07-23T04:22:25.538Z,16.25
2018-07-23T04:24:54.947Z,16.21
2018-07-23T04:27:24.376Z,16.18
2018-07-23T04:29:53.812Z,16.18
2018-07-23T04:32:23.305Z,16.21
2018-07-23T04:34:52.913Z,16.23
2018-07-23T04:37:22.451Z,16.26
2018-07-23T04:39:51.888Z,16.24
2018-07-23T04:42:21.325Z,16.27
2018-07-23T04:44:50.733Z,16.29
2018-07-23T04:47:20.757Z,16.22
2018-07-23T04:49:50.219Z,16.21
2018-07-23T04:52:20.864Z,16.16
2018-07-23T04:54:50.280Z,16.15
2018-07-23T04:57:19.713Z,16.17
2018-07-23T04:59:49.164Z,16.19
2018-07-23T05:02:18.569Z,16.20
2018-07-23T05:04:48.048Z,16.20
2018-07-23T05:07:17.475Z,16.17
2018-07-23T05:09:46.904Z,16.16
2018-07-23T05:12:16.382Z,16.17
2018-07-23T05:14:45.790Z,16.18
2018-07-23T05:17:15.284Z,16.20
2018-07-23T05:19:45.552Z,16.18
2018-07-23T05:22:15.078Z,16.19
2018-07-23T05:24:45.097Z,16.24
2018-07-23T05:27:14.497Z,16.28
2018-07-23T05:29:43.903Z,16.31
2018-07-23T05:32:13.424Z,16.36
2018-07-23T05:34:42.812Z,16.34
2018-07-23T05:37:12.227Z,16.39
2018-07-23T05:39:41.663Z,16.40
2018-07-23T05:42:11.139Z,16.44
2018-07-23T05:44:41.021Z,16.48
2018-07-23T05:47:10.449Z,16.51
2018-07-23T05:49:39.897Z,16.57
2018-07-23T05:52:09.281Z,16.63
2018-07-23T05:54:38.415Z,16.71
2018-07-23T05:57:07.895Z,16.75
2018-07-23T05:59:37.095Z,16.79
2018-07-23T06:02:06.649Z,16.81
2018-07-23T06:04:36.091Z,16.84
2018-07-23T06:07:05.530Z,16.86
2018-07-23T06:09:35.562Z,16.90
2018-07-23T06:12:05.695Z,16.93
2018-07-23T06:14:35.078Z,16.97
2018-07-23T06:17:04.663Z,17.02
2018-07-23T06:19:35.117Z,17.07
2018-07-23T06:22:04.665Z,17.11
2018-07-23T06:24:34.113Z,17.16
2018-07-23T06:27:03.864Z,17.21
2018-07-23T06:29:33.310Z,17.26
2018-07-23T06:32:02.702Z,17.32
2018-07-23T06:34:32.170Z,17.37
2018-07-23T06:37:01.622Z,17.43
2018-07-23T06:39:31.239Z,17.48
2018-07-23T06:42:00.364Z,17.53
2018-07-23T06:44:29.774Z,17.58
2018-07-23T06:47:00.305Z,17.65
2018-07-23T06:49:30.289Z,17.70
2018-07-23T06:51:59.430Z,17.75
2018-07-23T06:54:28.864Z,17.79
2018-07-23T06:56:58.336Z,17.83
2018-07-23T06:59:27.775Z,17.88
2018-07-23T07:01:58.284Z,17.92
2018-07-23T07:04:27.677Z,17.98
2018-07-23T07:06:57.099Z,18.03
2018-07-23T07:09:26.546Z,18.09
2018-07-23T07:11:55.680Z,18.15
2018-07-23T07:14:28.381Z,18.19
2018-07-23T07:16:58.157Z,18.24
2018-07-23T07:19:27.722Z,18.30
2018-07-23T07:21:57.160Z,18.36
2018-07-23T07:24:26.560Z,18.43
2018-07-23T07:26:56.044Z,18.49
2018-07-23T07:29:25.478Z,18.56
2018-07-23T07:31:55.473Z,18.63
2018-07-23T07:34:24.991Z,18.71
2018-07-23T07:36:54.441Z,18.78
2018-07-23T07:39:23.976Z,18.84
2018-07-23T07:41:53.420Z,18.90
2018-07-23T07:44:22.868Z,18.98
2018-07-23T07:46:52.357Z,19.06
2018-07-23T07:49:21.785Z,19.13
2018-07-23T07:51:51.791Z,19.19
2018-07-23T07:54:21.204Z,19.26
2018-07-23T07:56:50.629Z,19.34
2018-07-23T07:59:20.128Z,19.51
2018-07-23T08:01:49.587Z,19.64
2018-07-23T08:04:19.181Z,19.69
2018-07-23T08:06:48.311Z,19.76
2018-07-23T08:09:17.856Z,19.81
2018-07-23T08:11:47.329Z,19.88
2018-07-23T08:14:16.780Z,19.95
2018-07-23T08:16:46.310Z,19.99
2018-07-23T08:19:15.553Z,20.05
2018-07-23T08:21:44.988Z,20.10
2018-07-23T08:24:15.073Z,20.18
2018-07-23T08:26:45.080Z,20.25
2018-07-23T08:29:14.605Z,20.33
2018-07-23T08:31:44.202Z,20.45
2018-07-23T08:34:13.554Z,20.54
2018-07-23T08:36:42.999Z,20.62
2018-07-23T08:39:12.767Z,20.67
2018-07-23T08:41:42.181Z,20.72
2018-07-23T08:44:11.605Z,20.78
2018-07-23T08:46:41.062Z,20.85
2018-07-23T08:49:10.468Z,20.91
2018-07-23T08:51:39.930Z,20.98
2018-07-23T08:54:09.381Z,21.03
2018-07-23T08:56:38.865Z,21.05
2018-07-23T08:59:08.932Z,21.11
2018-07-23T09:01:38.333Z,21.17
2018-07-23T09:04:07.516Z,21.25
2018-07-23T09:06:36.958Z,21.30
2018-07-23T09:09:10.345Z,21.35
2018-07-23T09:11:40.427Z,21.41
2018-07-23T09:14:10.430Z,21.48
2018-07-23T09:16:40.010Z,21.54
2018-07-23T09:19:09.447Z,21.57
2018-07-23T09:21:38.752Z,21.61
2018-07-23T09:24:08.230Z,21.66
2018-07-23T09:26:37.698Z,21.73
2018-07-23T09:29:07.147Z,21.83
2018-07-23T09:31:36.526Z,21.96
2018-07-23T09:34:06.307Z,22.08
2018-07-23T09:36:35.802Z,22.25
2018-07-23T09:39:08.298Z,22.34
2018-07-23T09:41:37.793Z,22.45
2018-07-23T09:44:07.455Z,22.61
2018-07-23T09:46:36.907Z,22.67
2018-07-23T09:49:07.013Z,22.75
2018-07-23T09:51:36.473Z,22.93
2018-07-23T09:54:06.023Z,23.12
2018-07-23T09:56:35.535Z,23.21
2018-07-23T09:59:05.263Z,23.33
2018-07-23T10:01:34.690Z,23.39
2018-07-23T10:04:04.124Z,23.44
2018-07-23T10:06:33.569Z,23.46
2018-07-23T10:09:03.105Z,23.47
2018-07-23T10:11:33.068Z,23.50
2018-07-23T10:14:02.573Z,23.52
2018-07-23T10:16:32.151Z,23.54
2018-07-23T10:19:01.586Z,23.53
2018-07-23T10:21:31.009Z,23.61
2018-07-23T10:24:00.412Z,23.61
2018-07-23T10:26:29.887Z,23.64
2018-07-23T10:29:00.006Z,23.70
2018-07-23T10:31:30.005Z,23.72
2018-07-23T10:33:59.476Z,23.66
2018-07-23T10:36:28.930Z,23.72
2018-07-23T10:38:58.412Z,23.80
2018-07-23T10:41:28.865Z,23.86
2018-07-23T10:43:59.122Z,23.89
2018-07-23T10:46:28.562Z,23.90
2018-07-23T10:48:57.978Z,23.98
2018-07-23T10:51:27.446Z,23.96
2018-07-23T10:53:56.850Z,23.97
2018-07-23T10:56:26.375Z,24.03
2018-07-23T10:58:55.859Z,24.10
2018-07-23T11:01:25.296Z,24.16
2018-07-23T11:03:56.081Z,24.02
2018-07-23T11:06:25.508Z,24.04
2018-07-23T11:08:54.961Z,24.10
2018-07-23T11:11:24.406Z,24.12
2018-07-23T11:13:53.849Z,24.08
2018-07-23T11:16:23.353Z,24.06
2018-07-23T11:18:52.771Z,24.15
2018-07-23T11:21:22.310Z,24.22
2018-07-23T11:23:51.782Z,24.23
2018-07-23T11:26:21.246Z,24.28
2018-07-23T11:28:51.265Z,24.34
2018-07-23T11:31:20.748Z,24.34
2018-07-23T11:33:50.193Z,24.41
2018-07-23T11:36:19.577Z,24.46
2018-07-23T11:38:49.059Z,24.48
2018-07-23T11:41:18.478Z,24.50
2018-07-23T11:43:47.945Z,24.57
2018-07-23T11:46:24.984Z,24.61
2018-07-23T11:48:47.090Z,24.66
2018-07-23T11:51:16.483Z,24.69
2018-07-23T11:53:45.964Z,24.71
2018-07-23T11:56:15.356Z,24.73
2018-07-23T11:58:44.845Z,24.72
2018-07-23T12:01:14.304Z,24.67
2018-07-23T12:03:43.738Z,24.66
2018-07-23T12:06:13.174Z,24.64
2018-07-23T12:08:42.594Z,24.63
2018-07-23T12:11:12.061Z,24.63
2018-07-23T12:13:41.578Z,24.63
2018-07-23T12:16:11.057Z,24.65
2018-07-23T12:18:40.467Z,24.69
2018-07-23T12:21:09.882Z,24.77
2018-07-23T12:23:40.006Z,24.77
2018-07-23T12:26:09.558Z,24.81
2018-07-23T12:28:38.973Z,24.87
2018-07-23T12:31:08.417Z,24.92
2018-07-23T12:33:37.882Z,24.98
2018-07-23T12:36:08.965Z,25.06
2018-07-23T12:38:38.404Z,25.13
2018-07-23T12:41:07.816Z,25.21
2018-07-23T12:43:37.255Z,25.27
2018-07-23T12:46:06.715Z,25.30
2018-07-23T12:48:36.162Z,25.39
2018-07-23T12:51:05.629Z,25.43
2018-07-23T12:53:36.060Z,25.50
2018-07-23T12:56:05.520Z,25.51
2018-07-23T12:58:34.977Z,25.62
2018-07-23T13:01:04.494Z,25.69
2018-07-23T13:03:35.101Z,25.75
2018-07-23T13:06:04.550Z,25.84
2018-07-23T13:08:34.034Z,25.96
2018-07-23T13:11:03.498Z,26.07
2018-07-23T13:13:33.834Z,26.13
2018-07-23T13:16:03.297Z,26.14
2018-07-23T13:18:32.817Z,26.23
2018-07-23T13:21:02.266Z,26.31
2018-07-23T13:23:31.702Z,26.33
2018-07-23T13:26:01.189Z,26.40
2018-07-23T13:28:30.584Z,26.56
2018-07-23T13:31:00.030Z,26.62
2018-07-23T13:33:29.956Z,26.68
2018-07-23T13:35:59.410Z,26.75
2018-07-23T13:38:28.933Z,26.80
2018-07-23T13:40:58.339Z,26.93
2018-07-23T13:43:27.760Z,26.88
2018-07-23T13:45:57.185Z,26.96
2018-07-23T13:48:26.649Z,27.09
2018-07-23T13:50:56.088Z,27.13
2018-07-23T13:53:25.505Z,27.25
2018-07-23T13:55:54.934Z,27.28
2018-07-23T13:58:24.366Z,27.33
2018-07-23T14:00:54.001Z,27.42
2018-07-23T14:03:23.498Z,27.49
2018-07-23T14:05:53.061Z,27.59
2018-07-23T14:08:22.459Z,27.70
2018-07-23T14:10:51.899Z,27.79
2018-07-23T14:13:21.454Z,27.92
2018-07-23T14:15:50.854Z,27.97
2018-07-23T14:18:20.275Z,28.04
2018-07-23T14:20:49.775Z,28.11
2018-07-23T14:23:19.191Z,28.17
2018-07-23T14:25:48.743Z,28.25
2018-07-23T14:28:18.102Z,28.28
2018-07-23T14:30:48.585Z,28.41
2018-07-23T14:33:18.012Z,28.45
2018-07-23T14:35:47.484Z,28.54
2018-07-23T14:38:16.932Z,28.57
2018-07-23T14:40:46.436Z,28.45
2018-07-23T14:43:15.930Z,28.48
2018-07-23T14:45:45.432Z,28.47
2018-07-23T14:48:14.918Z,28.47
2018-07-23T14:50:44.392Z,28.48
2018-07-23T14:53:13.826Z,28.41
2018-07-23T14:55:43.228Z,28.33
2018-07-23T14:58:12.688Z,28.28
2018-07-23T15:00:42.111Z,28.20
2018-07-23T15:03:11.562Z,28.08
2018-07-23T15:05:41.092Z,28.04
2018-07-23T15:08:10.530Z,27.97
2018-07-23T15:10:40.044Z,27.91
2018-07-23T15:13:09.506Z,27.88
2018-07-23T15:15:38.954Z,27.84
2018-07-23T15:18:08.359Z,27.80
2018-07-23T15:20:37.774Z,27.78
2018-07-23T15:23:07.454Z,27.83
2018-07-23T15:25:36.901Z,27.80
2018-07-23T15:28:07.512Z,27.78
2018-07-23T15:30:36.924Z,27.76
2018-07-23T15:33:06.462Z,27.74
2018-07-23T15:35:35.803Z,27.79
2018-07-23T15:38:06.081Z,27.81
2018-07-23T15:40:35.538Z,27.80
2018-07-23T15:43:05.048Z,27.74
2018-07-23T15:45:34.630Z,27.75
2018-07-23T15:48:04.027Z,27.71
2018-07-23T15:50:33.459Z,27.74
2018-07-23T15:53:03.504Z,27.88
2018-07-23T15:55:32.924Z,28.02
2018-07-23T15:58:02.325Z,28.19
2018-07-23T16:00:31.783Z,28.32
2018-07-23T16:03:01.285Z,28.51
2018-07-23T16:05:30.793Z,28.50
2018-07-23T16:08:00.362Z,28.62
2018-07-23T16:10:29.816Z,28.60
2018-07-23T16:12:59.275Z,28.60
2018-07-23T16:15:28.723Z,28.56
2018-07-23T16:17:58.142Z,28.53
2018-07-23T16:20:27.645Z,28.44
2018-07-23T16:22:57.055Z,28.32
2018-07-23T16:25:26.522Z,28.29
2018-07-23T16:27:55.954Z,28.29
2018-07-23T16:30:25.433Z,28.22
2018-07-23T16:32:54.934Z,28.22
2018-07-23T16:35:24.467Z,28.21
2018-07-23T16:37:53.958Z,28.24
2018-07-23T16:40:23.342Z,28.27
2018-07-23T16:42:52.893Z,28.36
2018-07-23T16:45:22.372Z,28.34
2018-07-23T16:47:51.862Z,28.43
2018-07-23T16:50:21.343Z,28.44
2018-07-23T16:52:50.852Z,28.47
2018-07-23T16:55:20.309Z,28.40
2018-07-23T16:57:49.753Z,28.52
2018-07-23T17:00:19.257Z,28.53
2018-07-23T17:02:48.640Z,28.66
2018-07-23T17:05:18.107Z,28.81
2018-07-23T17:07:47.580Z,29.00
2018-07-23T17:10:17.004Z,29.15
2018-07-23T17:12:46.975Z,29.24
2018-07-23T17:15:16.516Z,29.24
2018-07-23T17:17:46.017Z,29.25
2018-07-23T17:20:15.443Z,29.46
2018-07-23T17:22:44.851Z,29.61
2018-07-23T17:25:14.335Z,29.62
2018-07-23T17:27:43.765Z,29.55
2018-07-23T17:30:13.189Z,29.38
2018-07-23T17:32:42.795Z,29.14
2018-07-23T17:35:12.292Z,29.05
2018-07-23T17:37:41.425Z,28.72
2018-07-23T17:40:10.934Z,28.57
2018-07-23T17:42:41.217Z,28.37
2018-07-23T17:45:10.679Z,28.20
2018-07-23T17:47:40.127Z,28.01
2018-07-23T17:50:09.639Z,27.94
2018-07-23T17:52:39.365Z,27.79
2018-07-23T17:55:09.848Z,27.58
2018-07-23T17:57:39.312Z,27.46
2018-07-23T18:00:08.857Z,27.39
2018-07-23T18:02:38.290Z,27.28
2018-07-23T18:05:07.470Z,27.13
2018-07-23T18:07:36.888Z,27.06
2018-07-23T18:10:07.654Z,26.87
2018-07-23T18:12:37.115Z,26.81
2018-07-23T18:15:07.171Z,26.70
2018-07-23T18:17:36.845Z,26.58
2018-07-23T18:20:05.972Z,26.46
2018-07-23T18:22:35.525Z,26.33
2018-07-23T18:25:05.341Z,26.24
2018-07-23T18:27:34.766Z,26.13
2018-07-23T18:30:05.372Z,26.03
2018-07-23T18:32:34.842Z,25.94
2018-07-23T18:35:05.143Z,25.89
2018-07-23T18:37:34.725Z,25.77
2018-07-23T18:40:04.381Z,25.69
2018-07-23T18:42:33.849Z,25.56
2018-07-23T18:45:03.271Z,25.46
2018-07-23T18:47:32.721Z,25.37
2018-07-23T18:50:02.256Z,25.33
2018-07-23T18:52:31.837Z,25.28
2018-07-23T18:55:02.110Z,25.17
2018-07-23T18:57:31.575Z,25.15
2018-07-23T19:00:02.729Z,25.05
2018-07-23T19:02:32.075Z,24.95
2018-07-23T19:05:02.334Z,24.86
2018-07-23T19:07:31.776Z,24.76
2018-07-23T19:10:01.301Z,24.68
2018-07-23T19:12:30.762Z,24.66
2018-07-23T19:15:00.268Z,24.51
2018-07-23T19:17:29.825Z,24.47
2018-07-23T19:19:59.219Z,24.40
2018-07-23T19:22:29.477Z,24.34
2018-07-23T19:24:58.885Z,24.23
2018-07-23T19:27:28.316Z,24.17
2018-07-23T19:29:57.787Z,24.13
2018-07-23T19:32:27.394Z,24.04
2018-07-23T19:34:56.803Z,24.00
2018-07-23T19:37:27.145Z,23.94
2018-07-23T19:39:56.617Z,23.83
2018-07-23T19:42:26.055Z,23.75
2018-07-23T19:44:55.490Z,23.73
2018-07-23T19:47:25.053Z,23.68
2018-07-23T19:49:54.593Z,23.58
2018-07-23T19:52:24.067Z,23.49
2018-07-23T19:54:53.460Z,23.42
2018-07-23T19:57:22.864Z,23.37
2018-07-23T19:59:52.459Z,23.30
2018-07-23T20:02:21.861Z,23.24
2018-07-23T20:04:51.288Z,23.16
2018-07-23T20:07:20.700Z,23.07
2018-07-23T20:09:50.148Z,23.05
2018-07-23T20:12:19.610Z,23.01
2018-07-23T20:14:49.017Z,22.96
2018-07-23T20:17:18.437Z,22.92
2018-07-23T20:19:47.888Z,22.90
2018-07-23T20:22:19.057Z,22.86
2018-07-23T20:24:48.465Z,22.79
2018-07-23T20:27:17.862Z,22.76
2018-07-23T20:29:47.338Z,22.68
2018-07-23T20:32:16.912Z,22.64
2018-07-23T20:34:46.409Z,22.59
2018-07-23T20:37:15.916Z,22.52
2018-07-23T20:39:45.317Z,22.45
2018-07-23T20:42:14.777Z,22.39
2018-07-23T20:44:44.279Z,22.37
2018-07-23T20:47:13.699Z,22.29
2018-07-23T20:49:43.156Z,22.29
2018-07-23T20:52:12.770Z,22.22
2018-07-23T20:54:42.209Z,22.14
2018-07-23T20:57:11.637Z,22.10
2018-07-23T20:59:41.041Z,22.10
2018-07-23T21:02:10.536Z,22.01
2018-07-23T21:04:40.038Z,21.99
2018-07-23T21:07:09.437Z,21.94
2018-07-23T21:09:38.922Z,21.91
2018-07-23T21:12:08.366Z,21.85
2018-07-23T21:14:37.888Z,21.79
2018-07-23T21:17:07.435Z,21.76
2018-07-23T21:19:36.897Z,21.70
2018-07-23T21:22:06.449Z,21.68
2018-07-23T21:24:35.902Z,21.64
2018-07-23T21:27:05.462Z,21.61
2018-07-23T21:29:34.945Z,21.58
2018-07-23T21:32:04.444Z,21.56
2018-07-23T21:34:33.860Z,21.53
2018-07-23T21:37:03.320Z,21.46
2018-07-23T21:39:32.850Z,21.43
2018-07-23T21:42:02.266Z,21.37
2018-07-23T21:44:31.627Z,21.33
2018-07-23T21:47:01.872Z,21.27
2018-07-23T21:49:31.307Z,21.27
2018-07-23T21:52:00.786Z,21.23
2018-07-23T21:54:31.235Z,21.19
2018-07-23T21:57:00.693Z,21.16
2018-07-23T21:59:30.199Z,21.16
2018-07-23T22:02:00.552Z,21.12
2018-07-23T22:04:30.057Z,21.06
2018-07-23T22:06:59.514Z,21.06
2018-07-23T22:09:28.983Z,20.99
2018-07-23T22:11:58.390Z,20.94
2018-07-23T22:14:27.767Z,20.85
2018-07-23T22:16:57.184Z,20.81
2018-07-23T22:19:26.603Z,20.79
2018-07-23T22:21:56.052Z,20.76
2018-07-23T22:24:25.483Z,20.77
2018-07-23T22:26:55.001Z,20.76
2018-07-23T22:29:24.440Z,20.78
2018-07-23T22:31:53.885Z,20.75
2018-07-23T22:34:23.359Z,20.71
2018-07-23T22:36:52.819Z,20.66
2018-07-23T22:39:22.278Z,20.61
2018-07-23T22:41:51.693Z,20.50
2018-07-23T22:44:21.199Z,20.45
2018-07-23T22:46:50.881Z,20.44
2018-07-23T22:49:20.327Z,20.41
2018-07-23T22:51:49.796Z,20.38
2018-07-23T22:54:19.195Z,20.32
2018-07-23T22:56:49.317Z,20.28
2018-07-23T22:59:18.709Z,20.24
2018-07-23T23:01:48.163Z,20.22
2018-07-23T23:04:17.586Z,20.21
2018-07-23T23:06:47.044Z,20.20
2018-07-23T23:09:16.485Z,20.16
2018-07-23T23:11:45.939Z,20.14
2018-07-23T23:14:15.412Z,20.14
2018-07-23T23:16:44.877Z,20.12
2018-07-23T23:19:14.346Z,20.12
2018-07-23T23:21:43.802Z,20.08
2018-07-23T23:24:14.285Z,20.04
2018-07-23T23:26:43.729Z,19.98
2018-07-23T23:29:13.714Z,19.95
2018-07-23T23:31:43.163Z,19.93
2018-07-23T23:34:12.584Z,19.90
2018-07-23T23:36:42.004Z,19.83
2018-07-23T23:39:12.502Z,19.81
2018-07-23T23:41:41.999Z,19.74
2018-07-23T23:44:11.445Z,19.70
2018-07-23T23:46:40.853Z,19.64
2018-07-23T23:49:10.353Z,19.61
2018-07-23T23:51:39.737Z,19.57
2018-07-23T23:54:09.148Z,19.52
2018-07-23T23:56:38.614Z,19.54
2018-07-23T23:59:08.074Z,19.54
